sensor_id;sensor_type;location;lat;lon;timestamp;temperature;humidity
49224;DHT22;35050;51.316;5.994;2023-03-05T00:02:14;6.90;99.90
49224;DHT22;35050;51.316;5.994;2023-03-05T00:04:39;6.70;99.90
49224;DHT22;35050;51.316;5.994;2023-03-05T00:07:05;6.60;99.90
49224;DHT22;35050;51.316;5.994;2023-03-05T00:09:33;6.60;99.90
49224;DHT22;35050;51.316;5.994;2023-03-05T00:11:59;6.70;99.90
49224;DHT22;35050;51.316;5.994;2023-03-05T00:14:24;6.80;99.90
49224;DHT22;35050;51.316;5.994;2023-03-05T00:16:50;6.70;99.90
49224;DHT22;35050;51.316;5.994;2023-03-05T00:19:15;6.80;99.90
49224;DHT22;35050;51.316;5.994;2023-03-05T00:21:41;6.70;99.90
49224;DHT22;35050;51.316;5.994;2023-03-05T00:24:11;6.80;99.90
49224;DHT22;35050;51.316;5.994;2023-03-05T00:26:37;6.80;99.90
49224;DHT22;35050;51.316;5.994;2023-03-05T00:29:04;6.60;99.90
49224;DHT22;35050;51.316;5.994;2023-03-05T00:31:32;6.60;99.90
49224;DHT22;35050;51.316;5.994;2023-03-05T00:34:04;6.60;99.90
49224;DHT22;35050;51.316;5.994;2023-03-05T00:36:30;6.70;99.90
49224;DHT22;35050;51.316;5.994;2023-03-05T00:38:56;6.60;99.90
49224;DHT22;35050;51.316;5.994;2023-03-05T00:41:22;6.60;99.90
49224;DHT22;35050;51.316;5.994;2023-03-05T00:43:47;6.60;99.90
49224;DHT22;35050;51.316;5.994;2023-03-05T00:46:13;6.60;99.90
49224;DHT22;35050;51.316;5.994;2023-03-05T00:48:39;6.70;99.90
49224;DHT22;35050;51.316;5.994;2023-03-05T00:51:05;6.70;99.90
49224;DHT22;35050;51.316;5.994;2023-03-05T00:53:30;6.70;99.90
49224;DHT22;35050;51.316;5.994;2023-03-05T00:55:57;6.60;99.90
49224;DHT22;35050;51.316;5.994;2023-03-05T00:58:23;6.70;99.90
49224;DHT22;35050;51.316;5.994;2023-03-05T01:00:48;6.70;99.90
49224;DHT22;35050;51.316;5.994;2023-03-05T01:03:18;6.60;99.90
49224;DHT22;35050;51.316;5.994;2023-03-05T01:05:44;6.60;99.90
49224;DHT22;35050;51.316;5.994;2023-03-05T01:08:10;6.60;99.90
49224;DHT22;35050;51.316;5.994;2023-03-05T01:10:35;6.70;99.90
49224;DHT22;35050;51.316;5.994;2023-03-05T01:13:01;6.70;99.90
49224;DHT22;35050;51.316;5.994;2023-03-05T01:15:27;6.70;99.90
49224;DHT22;35050;51.316;5.994;2023-03-05T01:17:52;6.70;99.90
49224;DHT22;35050;51.316;5.994;2023-03-05T01:20:20;6.80;99.90
49224;DHT22;35050;51.316;5.994;2023-03-05T01:22:46;6.70;99.90
49224;DHT22;35050;51.316;5.994;2023-03-05T01:25:12;6.60;99.90
49224;DHT22;35050;51.316;5.994;2023-03-05T01:27:38;6.60;99.90
49224;DHT22;35050;51.316;5.994;2023-03-05T01:30:05;6.70;99.90
49224;DHT22;35050;51.316;5.994;2023-03-05T01:32:32;6.70;99.90
49224;DHT22;35050;51.316;5.994;2023-03-05T01:34:59;6.60;99.90
49224;DHT22;35050;51.316;5.994;2023-03-05T01:37:25;6.50;99.90
49224;DHT22;35050;51.316;5.994;2023-03-05T01:39:51;6.60;99.90
49224;DHT22;35050;51.316;5.994;2023-03-05T01:42:16;6.50;99.90
49224;DHT22;35050;51.316;5.994;2023-03-05T01:47:24;6.50;99.90
49224;DHT22;35050;51.316;5.994;2023-03-05T01:49:50;6.50;99.90
49224;DHT22;35050;51.316;5.994;2023-03-05T01:52:19;6.50;99.90
49224;DHT22;35050;51.316;5.994;2023-03-05T01:54:52;6.40;99.90
49224;DHT22;35050;51.316;5.994;2023-03-05T01:57:30;6.40;99.90
49224;DHT22;35050;51.316;5.994;2023-03-05T02:00:01;6.40;99.90
49224;DHT22;35050;51.316;5.994;2023-03-05T02:02:28;6.50;99.90
49224;DHT22;35050;51.316;5.994;2023-03-05T02:05:07;6.60;99.90
49224;DHT22;35050;51.316;5.994;2023-03-05T02:07:34;6.50;99.90
49224;DHT22;35050;51.316;5.994;2023-03-05T02:10:23;6.40;99.90
49224;DHT22;35050;51.316;5.994;2023-03-05T02:12:51;6.50;99.90
49224;DHT22;35050;51.316;5.994;2023-03-05T02:15:17;6.40;99.90
49224;DHT22;35050;51.316;5.994;2023-03-05T02:17:44;6.00;99.90
49224;DHT22;35050;51.316;5.994;2023-03-05T02:20:19;6.10;99.90
49224;DHT22;35050;51.316;5.994;2023-03-05T02:22:45;6.00;99.90
49224;DHT22;35050;51.316;5.994;2023-03-05T02:25:13;6.10;99.90
49224;DHT22;35050;51.316;5.994;2023-03-05T02:27:40;6.10;99.90
49224;DHT22;35050;51.316;5.994;2023-03-05T02:30:08;6.10;99.90
49224;DHT22;35050;51.316;5.994;2023-03-05T02:32:33;6.10;99.90
49224;DHT22;35050;51.316;5.994;2023-03-05T02:34:59;6.10;99.90
49224;DHT22;35050;51.316;5.994;2023-03-05T02:37:25;6.00;99.90
49224;DHT22;35050;51.316;5.994;2023-03-05T02:39:50;6.20;99.90
49224;DHT22;35050;51.316;5.994;2023-03-05T02:42:16;6.10;99.90
49224;DHT22;35050;51.316;5.994;2023-03-05T02:44:41;6.20;99.90
49224;DHT22;35050;51.316;5.994;2023-03-05T02:47:07;6.20;99.90
49224;DHT22;35050;51.316;5.994;2023-03-05T02:49:33;6.20;99.90
49224;DHT22;35050;51.316;5.994;2023-03-05T02:51:58;6.20;99.90
49224;DHT22;35050;51.316;5.994;2023-03-05T02:54:24;6.30;99.90
49224;DHT22;35050;51.316;5.994;2023-03-05T02:56:50;6.20;99.90
49224;DHT22;35050;51.316;5.994;2023-03-05T02:59:15;6.30;99.90
49224;DHT22;35050;51.316;5.994;2023-03-05T03:01:41;6.10;99.90
49224;DHT22;35050;51.316;5.994;2023-03-05T03:04:07;6.10;99.90
49224;DHT22;35050;51.316;5.994;2023-03-05T03:06:32;6.20;99.90
49224;DHT22;35050;51.316;5.994;2023-03-05T03:08:58;6.10;99.90
49224;DHT22;35050;51.316;5.994;2023-03-05T03:11:24;6.10;99.90
49224;DHT22;35050;51.316;5.994;2023-03-05T03:13:49;6.10;99.90
49224;DHT22;35050;51.316;5.994;2023-03-05T03:16:16;6.00;99.90
49224;DHT22;35050;51.316;5.994;2023-03-05T03:18:42;6.10;99.90
49224;DHT22;35050;51.316;5.994;2023-03-05T03:21:16;6.10;99.90
49224;DHT22;35050;51.316;5.994;2023-03-05T03:23:42;6.10;99.90
49224;DHT22;35050;51.316;5.994;2023-03-05T03:26:08;6.00;99.90
49224;DHT22;35050;51.316;5.994;2023-03-05T03:28:33;5.90;99.90
49224;DHT22;35050;51.316;5.994;2023-03-05T03:30:59;6.10;99.90
49224;DHT22;35050;51.316;5.994;2023-03-05T03:33:24;6.10;99.90
49224;DHT22;35050;51.316;5.994;2023-03-05T03:35:50;6.00;99.90
49224;DHT22;35050;51.316;5.994;2023-03-05T03:38:16;5.70;99.90
49224;DHT22;35050;51.316;5.994;2023-03-05T03:40:41;5.80;99.90
49224;DHT22;35050;51.316;5.994;2023-03-05T03:43:07;5.70;99.90
49224;DHT22;35050;51.316;5.994;2023-03-05T03:45:33;5.90;99.90
49224;DHT22;35050;51.316;5.994;2023-03-05T03:47:59;5.80;99.90
49224;DHT22;35050;51.316;5.994;2023-03-05T03:50:24;5.90;99.90
49224;DHT22;35050;51.316;5.994;2023-03-05T03:52:51;5.90;99.90
49224;DHT22;35050;51.316;5.994;2023-03-05T03:55:17;6.10;99.90
49224;DHT22;35050;51.316;5.994;2023-03-05T03:57:42;6.00;99.90
49224;DHT22;35050;51.316;5.994;2023-03-05T04:00:09;6.00;99.90
49224;DHT22;35050;51.316;5.994;2023-03-05T04:02:36;6.00;99.90
49224;DHT22;35050;51.316;5.994;2023-03-05T04:05:02;5.90;99.90
49224;DHT22;35050;51.316;5.994;2023-03-05T04:07:28;6.00;99.90
49224;DHT22;35050;51.316;5.994;2023-03-05T04:09:53;5.90;99.90
49224;DHT22;35050;51.316;5.994;2023-03-05T04:12:19;6.00;99.90
49224;DHT22;35050;51.316;5.994;2023-03-05T04:14:46;5.90;99.90
49224;DHT22;35050;51.316;5.994;2023-03-05T04:17:12;5.80;99.90
49224;DHT22;35050;51.316;5.994;2023-03-05T04:19:38;5.80;99.90
49224;DHT22;35050;51.316;5.994;2023-03-05T04:22:04;5.90;99.90
49224;DHT22;35050;51.316;5.994;2023-03-05T04:24:29;5.80;99.90
49224;DHT22;35050;51.316;5.994;2023-03-05T04:26:55;6.00;99.90
49224;DHT22;35050;51.316;5.994;2023-03-05T04:29:20;6.00;99.90
49224;DHT22;35050;51.316;5.994;2023-03-05T04:31:46;5.90;99.90
49224;DHT22;35050;51.316;5.994;2023-03-05T04:34:12;5.80;99.90
49224;DHT22;35050;51.316;5.994;2023-03-05T04:36:37;5.90;99.90
49224;DHT22;35050;51.316;5.994;2023-03-05T04:39:03;5.90;99.90
49224;DHT22;35050;51.316;5.994;2023-03-05T04:41:29;5.90;99.90
49224;DHT22;35050;51.316;5.994;2023-03-05T04:43:55;5.80;99.90
49224;DHT22;35050;51.316;5.994;2023-03-05T04:46:20;5.90;99.90
49224;DHT22;35050;51.316;5.994;2023-03-05T04:48:46;5.90;99.90
49224;DHT22;35050;51.316;5.994;2023-03-05T04:51:11;5.70;99.90
49224;DHT22;35050;51.316;5.994;2023-03-05T04:53:37;5.80;99.90
49224;DHT22;35050;51.316;5.994;2023-03-05T04:56:03;5.80;99.90
49224;DHT22;35050;51.316;5.994;2023-03-05T04:58:29;5.70;99.90
49224;DHT22;35050;51.316;5.994;2023-03-05T05:01:00;5.70;99.90
49224;DHT22;35050;51.316;5.994;2023-03-05T05:03:26;5.80;99.90
49224;DHT22;35050;51.316;5.994;2023-03-05T05:05:56;5.80;99.90
49224;DHT22;35050;51.316;5.994;2023-03-05T05:08:22;5.70;99.90
49224;DHT22;35050;51.316;5.994;2023-03-05T05:13:21;5.70;99.90
49224;DHT22;35050;51.316;5.994;2023-03-05T05:15:47;5.40;99.90
49224;DHT22;35050;51.316;5.994;2023-03-05T05:18:12;5.60;99.90
49224;DHT22;35050;51.316;5.994;2023-03-05T05:20:38;5.60;99.90
49224;DHT22;35050;51.316;5.994;2023-03-05T05:23:03;5.70;99.90
49224;DHT22;35050;51.316;5.994;2023-03-05T05:25:29;5.70;99.90
49224;DHT22;35050;51.316;5.994;2023-03-05T05:27:55;5.70;99.90
49224;DHT22;35050;51.316;5.994;2023-03-05T05:30:20;5.90;99.90
49224;DHT22;35050;51.316;5.994;2023-03-05T05:32:46;5.80;99.90
49224;DHT22;35050;51.316;5.994;2023-03-05T05:35:11;5.80;99.90
49224;DHT22;35050;51.316;5.994;2023-03-05T05:37:37;5.70;99.90
49224;DHT22;35050;51.316;5.994;2023-03-05T05:40:03;5.70;99.90
49224;DHT22;35050;51.316;5.994;2023-03-05T05:42:30;5.70;99.90
49224;DHT22;35050;51.316;5.994;2023-03-05T05:44:55;5.60;99.90
49224;DHT22;35050;51.316;5.994;2023-03-05T05:47:21;5.70;99.90
49224;DHT22;35050;51.316;5.994;2023-03-05T05:49:47;5.70;99.90
49224;DHT22;35050;51.316;5.994;2023-03-05T05:52:13;5.60;99.90
49224;DHT22;35050;51.316;5.994;2023-03-05T05:54:38;5.50;99.90
49224;DHT22;35050;51.316;5.994;2023-03-05T05:57:05;5.60;99.90
49224;DHT22;35050;51.316;5.994;2023-03-05T05:59:30;5.50;99.90
49224;DHT22;35050;51.316;5.994;2023-03-05T06:01:56;5.60;99.90
49224;DHT22;35050;51.316;5.994;2023-03-05T06:04:22;5.50;99.90
49224;DHT22;35050;51.316;5.994;2023-03-05T06:06:47;5.30;99.90
49224;DHT22;35050;51.316;5.994;2023-03-05T06:09:13;5.50;99.90
49224;DHT22;35050;51.316;5.994;2023-03-05T06:11:39;5.50;99.90
49224;DHT22;35050;51.316;5.994;2023-03-05T06:14:04;5.50;99.90
49224;DHT22;35050;51.316;5.994;2023-03-05T06:16:32;5.50;99.90
49224;DHT22;35050;51.316;5.994;2023-03-05T06:18:57;5.50;99.90
49224;DHT22;35050;51.316;5.994;2023-03-05T06:21:24;5.50;99.90
49224;DHT22;35050;51.316;5.994;2023-03-05T06:23:50;5.70;99.90
49224;DHT22;35050;51.316;5.994;2023-03-05T06:26:18;5.70;99.90
49224;DHT22;35050;51.316;5.994;2023-03-05T06:28:45;5.70;99.90
49224;DHT22;35050;51.316;5.994;2023-03-05T06:31:13;5.60;99.90
49224;DHT22;35050;51.316;5.994;2023-03-05T06:33:40;5.50;99.90
49224;DHT22;35050;51.316;5.994;2023-03-05T06:36:08;5.50;99.90
49224;DHT22;35050;51.316;5.994;2023-03-05T06:38:35;5.60;99.90
49224;DHT22;35050;51.316;5.994;2023-03-05T06:41:07;5.60;99.90
49224;DHT22;35050;51.316;5.994;2023-03-05T06:43:41;5.60;99.90
49224;DHT22;35050;51.316;5.994;2023-03-05T06:46:24;5.80;99.90
49224;DHT22;35050;51.316;5.994;2023-03-05T06:48:51;5.70;99.90
49224;DHT22;35050;51.316;5.994;2023-03-05T06:51:19;5.60;99.90
49224;DHT22;35050;51.316;5.994;2023-03-05T06:53:45;5.60;99.90
49224;DHT22;35050;51.316;5.994;2023-03-05T06:56:12;5.50;99.90
49224;DHT22;35050;51.316;5.994;2023-03-05T06:58:39;5.60;99.90
49224;DHT22;35050;51.316;5.994;2023-03-05T07:01:06;5.50;99.90
49224;DHT22;35050;51.316;5.994;2023-03-05T07:03:33;5.50;99.90
49224;DHT22;35050;51.316;5.994;2023-03-05T07:06:04;5.50;99.90
49224;DHT22;35050;51.316;5.994;2023-03-05T07:08:30;5.40;99.90
49224;DHT22;35050;51.316;5.994;2023-03-05T07:10:57;5.40;99.90
49224;DHT22;35050;51.316;5.994;2023-03-05T07:13:23;5.50;99.90
49224;DHT22;35050;51.316;5.994;2023-03-05T07:15:49;5.50;99.90
49224;DHT22;35050;51.316;5.994;2023-03-05T07:18:14;5.50;99.90
49224;DHT22;35050;51.316;5.994;2023-03-05T07:20:41;5.50;99.90
49224;DHT22;35050;51.316;5.994;2023-03-05T07:23:06;5.70;99.90
49224;DHT22;35050;51.316;5.994;2023-03-05T07:25:35;5.60;99.90
49224;DHT22;35050;51.316;5.994;2023-03-05T07:28:02;5.70;99.90
49224;DHT22;35050;51.316;5.994;2023-03-05T07:30:29;5.70;99.90
49224;DHT22;35050;51.316;5.994;2023-03-05T07:32:55;5.70;99.90
49224;DHT22;35050;51.316;5.994;2023-03-05T07:35:21;5.70;99.90
49224;DHT22;35050;51.316;5.994;2023-03-05T07:37:46;5.70;99.90
49224;DHT22;35050;51.316;5.994;2023-03-05T07:40:12;5.90;99.90
49224;DHT22;35050;51.316;5.994;2023-03-05T07:42:38;5.80;99.90
49224;DHT22;35050;51.316;5.994;2023-03-05T07:45:03;5.80;99.90
49224;DHT22;35050;51.316;5.994;2023-03-05T07:47:29;5.80;99.90
49224;DHT22;35050;51.316;5.994;2023-03-05T07:49:55;5.80;99.90
49224;DHT22;35050;51.316;5.994;2023-03-05T07:52:20;5.70;99.90
49224;DHT22;35050;51.316;5.994;2023-03-05T07:54:46;5.70;99.90
49224;DHT22;35050;51.316;5.994;2023-03-05T07:57:14;5.70;99.90
49224;DHT22;35050;51.316;5.994;2023-03-05T07:59:40;6.00;99.90
49224;DHT22;35050;51.316;5.994;2023-03-05T08:02:06;6.10;99.90
49224;DHT22;35050;51.316;5.994;2023-03-05T08:04:31;6.10;99.90
49224;DHT22;35050;51.316;5.994;2023-03-05T08:06:58;6.00;99.90
49224;DHT22;35050;51.316;5.994;2023-03-05T08:09:24;6.00;99.90
49224;DHT22;35050;51.316;5.994;2023-03-05T08:11:50;6.00;99.90
49224;DHT22;35050;51.316;5.994;2023-03-05T08:14:16;6.10;99.90
49224;DHT22;35050;51.316;5.994;2023-03-05T08:16:41;5.80;99.90
49224;DHT22;35050;51.316;5.994;2023-03-05T08:19:08;5.80;99.90
49224;DHT22;35050;51.316;5.994;2023-03-05T08:21:35;5.70;99.90
49224;DHT22;35050;51.316;5.994;2023-03-05T08:24:03;5.80;99.90
49224;DHT22;35050;51.316;5.994;2023-03-05T08:26:31;5.90;99.90
49224;DHT22;35050;51.316;5.994;2023-03-05T08:28:57;5.70;99.90
49224;DHT22;35050;51.316;5.994;2023-03-05T08:31:24;6.10;99.90
49224;DHT22;35050;51.316;5.994;2023-03-05T08:33:52;5.90;99.90
49224;DHT22;35050;51.316;5.994;2023-03-05T08:36:19;5.90;99.90
49224;DHT22;35050;51.316;5.994;2023-03-05T08:38:44;6.00;99.90
49224;DHT22;35050;51.316;5.994;2023-03-05T08:41:13;6.00;99.90
49224;DHT22;35050;51.316;5.994;2023-03-05T08:43:39;6.00;99.90
49224;DHT22;35050;51.316;5.994;2023-03-05T08:46:05;6.00;99.90
49224;DHT22;35050;51.316;5.994;2023-03-05T08:48:31;6.00;99.90
49224;DHT22;35050;51.316;5.994;2023-03-05T08:51:03;5.90;99.90
49224;DHT22;35050;51.316;5.994;2023-03-05T08:53:29;6.00;99.90
49224;DHT22;35050;51.316;5.994;2023-03-05T08:55:56;5.70;99.90
49224;DHT22;35050;51.316;5.994;2023-03-05T08:58:22;5.90;99.90
49224;DHT22;35050;51.316;5.994;2023-03-05T09:00:47;5.90;99.90
49224;DHT22;35050;51.316;5.994;2023-03-05T09:03:13;6.00;99.90
49224;DHT22;35050;51.316;5.994;2023-03-05T09:05:39;6.00;99.90
49224;DHT22;35050;51.316;5.994;2023-03-05T09:08:04;6.00;99.90
49224;DHT22;35050;51.316;5.994;2023-03-05T09:10:30;6.00;99.90
49224;DHT22;35050;51.316;5.994;2023-03-05T09:12:56;6.00;99.90
49224;DHT22;35050;51.316;5.994;2023-03-05T09:15:21;6.10;99.90
49224;DHT22;35050;51.316;5.994;2023-03-05T09:17:47;6.20;99.90
49224;DHT22;35050;51.316;5.994;2023-03-05T09:20:13;6.10;99.90
49224;DHT22;35050;51.316;5.994;2023-03-05T09:22:40;6.10;99.90
49224;DHT22;35050;51.316;5.994;2023-03-05T09:25:07;6.20;99.90
49224;DHT22;35050;51.316;5.994;2023-03-05T09:27:34;6.20;99.90
49224;DHT22;35050;51.316;5.994;2023-03-05T09:30:00;6.10;99.90
49224;DHT22;35050;51.316;5.994;2023-03-05T09:32:25;6.30;99.90
49224;DHT22;35050;51.316;5.994;2023-03-05T09:34:51;6.50;99.90
49224;DHT22;35050;51.316;5.994;2023-03-05T09:37:17;6.70;99.90
49224;DHT22;35050;51.316;5.994;2023-03-05T09:39:42;6.70;99.90
49224;DHT22;35050;51.316;5.994;2023-03-05T09:48:19;7.20;99.90
49224;DHT22;35050;51.316;5.994;2023-03-05T09:50:51;7.20;99.90
49224;DHT22;35050;51.316;5.994;2023-03-05T09:53:38;7.50;99.90
49224;DHT22;35050;51.316;5.994;2023-03-05T09:56:31;7.40;99.90
49224;DHT22;35050;51.316;5.994;2023-03-05T09:59:25;7.50;99.90
49224;DHT22;35050;51.316;5.994;2023-03-05T10:01:58;8.10;99.90
49224;DHT22;35050;51.316;5.994;2023-03-05T10:04:45;7.90;99.90
49224;DHT22;35050;51.316;5.994;2023-03-05T10:07:33;8.10;99.90
49224;DHT22;35050;51.316;5.994;2023-03-05T10:10:10;8.40;99.90
49224;DHT22;35050;51.316;5.994;2023-03-05T10:12:49;7.90;99.90
49224;DHT22;35050;51.316;5.994;2023-03-05T10:15:22;8.00;99.90
49224;DHT22;35050;51.316;5.994;2023-03-05T10:18:06;8.30;99.90
49224;DHT22;35050;51.316;5.994;2023-03-05T10:32:43;8.10;99.90
49224;DHT22;35050;51.316;5.994;2023-03-05T10:40:41;8.20;99.90
49224;DHT22;35050;51.316;5.994;2023-03-05T10:45:53;8.20;99.90
49224;DHT22;35050;51.316;5.994;2023-03-05T10:56:21;7.70;99.90
49224;DHT22;35050;51.316;5.994;2023-03-05T10:58:47;7.40;99.90
49224;DHT22;35050;51.316;5.994;2023-03-05T11:03:48;7.80;99.90
49224;DHT22;35050;51.316;5.994;2023-03-05T11:06:14;8.00;99.90
49224;DHT22;35050;51.316;5.994;2023-03-05T11:08:46;8.10;99.90
49224;DHT22;35050;51.316;5.994;2023-03-05T11:11:18;8.50;99.90
49224;DHT22;35050;51.316;5.994;2023-03-05T11:14:00;9.10;99.90
49224;DHT22;35050;51.316;5.994;2023-03-05T11:16:29;9.10;99.90
49224;DHT22;35050;51.316;5.994;2023-03-05T11:21:41;8.80;99.90
49224;DHT22;35050;51.316;5.994;2023-03-05T11:24:12;9.00;99.90
49224;DHT22;35050;51.316;5.994;2023-03-05T11:26:59;9.10;99.90
49224;DHT22;35050;51.316;5.994;2023-03-05T11:29:30;8.90;99.90
49224;DHT22;35050;51.316;5.994;2023-03-05T11:32:23;8.80;99.90
49224;DHT22;35050;51.316;5.994;2023-03-05T11:34:50;8.80;99.90
49224;DHT22;35050;51.316;5.994;2023-03-05T11:37:30;8.80;99.90
49224;DHT22;35050;51.316;5.994;2023-03-05T11:42:44;8.80;99.90
49224;DHT22;35050;51.316;5.994;2023-03-05T11:45:15;8.90;99.90
49224;DHT22;35050;51.316;5.994;2023-03-05T11:47:48;9.00;99.90
49224;DHT22;35050;51.316;5.994;2023-03-05T11:50:29;8.80;99.90
49224;DHT22;35050;51.316;5.994;2023-03-05T11:52:57;9.00;99.90
49224;DHT22;35050;51.316;5.994;2023-03-05T11:59:00;8.50;99.90
49224;DHT22;35050;51.316;5.994;2023-03-05T12:01:13;8.60;99.90
49224;DHT22;35050;51.316;5.994;2023-03-05T12:03:40;8.50;99.90
49224;DHT22;35050;51.316;5.994;2023-03-05T12:06:17;8.60;99.90
49224;DHT22;35050;51.316;5.994;2023-03-05T12:08:48;8.50;99.90
49224;DHT22;35050;51.316;5.994;2023-03-05T12:11:22;8.50;99.90
49224;DHT22;35050;51.316;5.994;2023-03-05T12:16:43;8.50;99.90
49224;DHT22;35050;51.316;5.994;2023-03-05T12:19:26;8.60;99.90
49224;DHT22;35050;51.316;5.994;2023-03-05T12:21:55;8.50;99.90
49224;DHT22;35050;51.316;5.994;2023-03-05T12:29:41;8.40;99.90
49224;DHT22;35050;51.316;5.994;2023-03-05T12:35:39;8.60;99.90
49224;DHT22;35050;51.316;5.994;2023-03-05T12:38:27;8.80;99.90
49224;DHT22;35050;51.316;5.994;2023-03-05T12:46:29;8.50;99.90
49224;DHT22;35050;51.316;5.994;2023-03-05T12:48:56;8.50;99.90
49224;DHT22;35050;51.316;5.994;2023-03-05T12:51:30;8.50;99.90
49224;DHT22;35050;51.316;5.994;2023-03-05T12:53:57;8.40;99.90
49224;DHT22;35050;51.316;5.994;2023-03-05T12:56:44;8.10;99.90
49224;DHT22;35050;51.316;5.994;2023-03-05T12:59:12;8.30;99.90
49224;DHT22;35050;51.316;5.994;2023-03-05T13:01:44;8.30;99.90
49224;DHT22;35050;51.316;5.994;2023-03-05T13:04:27;8.40;99.90
49224;DHT22;35050;51.316;5.994;2023-03-05T13:07:02;8.20;99.90
49224;DHT22;35050;51.316;5.994;2023-03-05T13:09:31;8.50;99.90
49224;DHT22;35050;51.316;5.994;2023-03-05T13:11:59;8.90;99.90
49224;DHT22;35050;51.316;5.994;2023-03-05T13:14:44;8.80;99.90
49224;DHT22;35050;51.316;5.994;2023-03-05T13:19:56;8.40;99.90
49224;DHT22;35050;51.316;5.994;2023-03-05T13:22:22;8.50;99.90
49224;DHT22;35050;51.316;5.994;2023-03-05T13:27:35;8.80;99.90
49224;DHT22;35050;51.316;5.994;2023-03-05T13:30:01;8.70;99.90
49224;DHT22;35050;51.316;5.994;2023-03-05T13:32:29;8.70;99.90
49224;DHT22;35050;51.316;5.994;2023-03-05T13:34:57;8.90;99.90
49224;DHT22;35050;51.316;5.994;2023-03-05T13:37:25;8.70;99.90
49224;DHT22;35050;51.316;5.994;2023-03-05T13:39:58;8.60;99.90
49224;DHT22;35050;51.316;5.994;2023-03-05T13:42:28;8.70;99.90
49224;DHT22;35050;51.316;5.994;2023-03-05T13:44:59;8.70;99.90
49224;DHT22;35050;51.316;5.994;2023-03-05T13:47:27;8.60;99.90
49224;DHT22;35050;51.316;5.994;2023-03-05T13:50:01;8.40;99.90
49224;DHT22;35050;51.316;5.994;2023-03-05T13:52:31;8.50;99.90
49224;DHT22;35050;51.316;5.994;2023-03-05T13:54:59;8.60;99.90
49224;DHT22;35050;51.316;5.994;2023-03-05T13:57:37;8.50;99.90
49224;DHT22;35050;51.316;5.994;2023-03-05T14:00:34;8.30;99.90
49224;DHT22;35050;51.316;5.994;2023-03-05T14:03:20;8.50;99.90
49224;DHT22;35050;51.316;5.994;2023-03-05T14:05:46;8.50;99.90
49224;DHT22;35050;51.316;5.994;2023-03-05T14:08:23;8.30;99.90
49224;DHT22;35050;51.316;5.994;2023-03-05T14:10:50;8.20;99.90
49224;DHT22;35050;51.316;5.994;2023-03-05T14:13:19;8.30;99.90
49224;DHT22;35050;51.316;5.994;2023-03-05T14:16:26;8.40;99.90
49224;DHT22;35050;51.316;5.994;2023-03-05T14:18:58;8.30;99.90
49224;DHT22;35050;51.316;5.994;2023-03-05T14:21:24;8.40;99.90
49224;DHT22;35050;51.316;5.994;2023-03-05T14:23:52;8.50;99.90
49224;DHT22;35050;51.316;5.994;2023-03-05T14:26:34;8.50;99.90
49224;DHT22;35050;51.316;5.994;2023-03-05T14:31:44;8.50;99.90
49224;DHT22;35050;51.316;5.994;2023-03-05T14:34:29;8.40;99.90
49224;DHT22;35050;51.316;5.994;2023-03-05T14:36:59;8.30;99.90
49224;DHT22;35050;51.316;5.994;2023-03-05T14:42:20;8.30;99.90
49224;DHT22;35050;51.316;5.994;2023-03-05T14:44:49;8.30;99.90
49224;DHT22;35050;51.316;5.994;2023-03-05T14:47:14;8.20;99.90
49224;DHT22;35050;51.316;5.994;2023-03-05T14:49:40;8.30;99.90
49224;DHT22;35050;51.316;5.994;2023-03-05T14:52:05;8.40;99.90
49224;DHT22;35050;51.316;5.994;2023-03-05T14:54:35;8.60;99.90
49224;DHT22;35050;51.316;5.994;2023-03-05T14:57:03;8.70;99.90
49224;DHT22;35050;51.316;5.994;2023-03-05T14:59:29;8.70;99.90
49224;DHT22;35050;51.316;5.994;2023-03-05T15:01:55;8.80;99.90
49224;DHT22;35050;51.316;5.994;2023-03-05T15:04:22;8.70;99.90
49224;DHT22;35050;51.316;5.994;2023-03-05T15:06:48;8.80;99.90
49224;DHT22;35050;51.316;5.994;2023-03-05T15:09:16;8.70;99.90
49224;DHT22;35050;51.316;5.994;2023-03-05T15:11:44;8.70;99.90
49224;DHT22;35050;51.316;5.994;2023-03-05T15:14:10;8.70;99.90
49224;DHT22;35050;51.316;5.994;2023-03-05T15:16:36;8.60;99.90
49224;DHT22;35050;51.316;5.994;2023-03-05T15:19:02;8.30;99.90
49224;DHT22;35050;51.316;5.994;2023-03-05T15:21:28;8.30;99.90
49224;DHT22;35050;51.316;5.994;2023-03-05T15:23:54;8.20;99.90
49224;DHT22;35050;51.316;5.994;2023-03-05T15:26:20;8.10;99.90
49224;DHT22;35050;51.316;5.994;2023-03-05T15:28:46;8.20;99.90
49224;DHT22;35050;51.316;5.994;2023-03-05T15:31:12;8.10;99.90
49224;DHT22;35050;51.316;5.994;2023-03-05T15:33:40;8.10;99.90
49224;DHT22;35050;51.316;5.994;2023-03-05T15:36:06;8.10;99.90
49224;DHT22;35050;51.316;5.994;2023-03-05T15:38:33;8.00;99.90
49224;DHT22;35050;51.316;5.994;2023-03-05T15:40:59;8.20;99.90
49224;DHT22;35050;51.316;5.994;2023-03-05T15:43:24;8.10;99.90
49224;DHT22;35050;51.316;5.994;2023-03-05T15:45:50;8.00;99.90
49224;DHT22;35050;51.316;5.994;2023-03-05T15:48:16;8.00;99.90
49224;DHT22;35050;51.316;5.994;2023-03-05T15:50:42;7.90;99.90
49224;DHT22;35050;51.316;5.994;2023-03-05T15:53:08;7.80;99.90
49224;DHT22;35050;51.316;5.994;2023-03-05T15:55:39;7.60;99.90
49224;DHT22;35050;51.316;5.994;2023-03-05T15:58:05;7.70;99.90
49224;DHT22;35050;51.316;5.994;2023-03-05T16:00:33;7.70;99.90
49224;DHT22;35050;51.316;5.994;2023-03-05T16:02:59;7.70;99.90
49224;DHT22;35050;51.316;5.994;2023-03-05T16:05:25;7.70;99.90
49224;DHT22;35050;51.316;5.994;2023-03-05T16:07:51;7.50;99.90
49224;DHT22;35050;51.316;5.994;2023-03-05T16:10:21;7.60;99.90
49224;DHT22;35050;51.316;5.994;2023-03-05T16:12:51;7.60;99.90
49224;DHT22;35050;51.316;5.994;2023-03-05T16:15:20;7.60;99.90
49224;DHT22;35050;51.316;5.994;2023-03-05T16:17:48;7.60;99.90
49224;DHT22;35050;51.316;5.994;2023-03-05T16:20:15;7.60;99.90
49224;DHT22;35050;51.316;5.994;2023-03-05T16:22:41;7.50;99.90
49224;DHT22;35050;51.316;5.994;2023-03-05T16:25:07;7.60;99.90
49224;DHT22;35050;51.316;5.994;2023-03-05T16:27:33;7.40;99.90
49224;DHT22;35050;51.316;5.994;2023-03-05T16:29:59;7.60;99.90
49224;DHT22;35050;51.316;5.994;2023-03-05T16:32:25;7.40;99.90
49224;DHT22;35050;51.316;5.994;2023-03-05T16:34:50;7.50;99.90
49224;DHT22;35050;51.316;5.994;2023-03-05T16:37:21;7.30;99.90
49224;DHT22;35050;51.316;5.994;2023-03-05T16:39:48;7.30;99.90
49224;DHT22;35050;51.316;5.994;2023-03-05T16:42:14;7.20;99.90
49224;DHT22;35050;51.316;5.994;2023-03-05T16:44:41;7.20;99.90
49224;DHT22;35050;51.316;5.994;2023-03-05T16:47:08;7.30;99.90
49224;DHT22;35050;51.316;5.994;2023-03-05T16:49:37;7.30;99.90
49224;DHT22;35050;51.316;5.994;2023-03-05T16:52:03;7.30;99.90
49224;DHT22;35050;51.316;5.994;2023-03-05T16:54:30;7.10;99.90
49224;DHT22;35050;51.316;5.994;2023-03-05T16:56:56;7.30;99.90
49224;DHT22;35050;51.316;5.994;2023-03-05T16:59:23;7.10;99.90
49224;DHT22;35050;51.316;5.994;2023-03-05T17:01:49;7.30;99.90
49224;DHT22;35050;51.316;5.994;2023-03-05T17:04:15;7.10;99.90
49224;DHT22;35050;51.316;5.994;2023-03-05T17:06:44;7.10;99.90
49224;DHT22;35050;51.316;5.994;2023-03-05T17:09:11;7.10;99.90
49224;DHT22;35050;51.316;5.994;2023-03-05T17:11:37;7.00;99.90